createdAt,value
2022-09-21T00:05:06.055Z,3.45
2022-09-21T00:15:09.795Z,3.85
2022-09-21T00:25:11.909Z,7.57
2022-09-21T00:35:14.163Z,3.20
2022-09-21T00:45:16.052Z,3.22
2022-09-21T00:55:48.627Z,3.92
2022-09-21T01:05:50.469Z,4.35
2022-09-21T01:16:12.790Z,5.03
2022-09-21T01:26:52.532Z,6.32
2022-09-21T01:36:57.940Z,5.45
2022-09-21T01:47:03.591Z,7.22
2022-09-21T01:57:34.139Z,6.10
2022-09-21T02:17:50.156Z,5.78
2022-09-21T02:28:02.277Z,6.65
2022-09-21T02:38:31.852Z,7.68
2022-09-21T02:48:38.284Z,6.53
2022-09-21T02:58:48.179Z,7.57
2022-09-21T03:18:51.980Z,7.55
2022-09-21T03:28:54.167Z,8.32
2022-09-21T03:38:56.311Z,10.43
2022-09-21T03:48:58.187Z,8.43
2022-09-21T03:59:13.297Z,10.35
2022-09-21T04:09:22.398Z,8.88
2022-09-21T04:19:24.276Z,13.38
2022-09-21T04:29:26.192Z,11.23
2022-09-21T04:39:28.007Z,11.75
2022-09-21T04:49:31.014Z,10.80
2022-09-21T04:59:34.067Z,12.10
2022-09-21T05:09:36.268Z,10.95
2022-09-21T05:19:38.372Z,13.93
2022-09-21T05:29:41.242Z,9.65
2022-09-21T05:39:43.417Z,18.05
2022-09-21T05:49:50.011Z,15.27
2022-09-21T06:00:20.760Z,14.93
2022-09-21T06:10:22.952Z,28.92
2022-09-21T06:20:24.827Z,22.27
2022-09-21T06:30:26.839Z,14.38
2022-09-21T06:40:30.740Z,14.15
2022-09-21T06:50:33.612Z,16.73
2022-09-21T07:00:35.853Z,15.90
2022-09-21T07:10:37.959Z,11.27
2022-09-21T07:20:41.472Z,18.48
2022-09-21T07:30:43.447Z,18.83
2022-09-21T07:40:45.461Z,12.45
2022-09-21T07:50:47.415Z,12.68
2022-09-21T08:00:50.339Z,15.15
2022-09-21T08:10:52.461Z,12.05
2022-09-21T08:20:59.564Z,10.13
2022-09-21T08:31:12.811Z,16.38
2022-09-21T08:41:21.845Z,10.93
2022-09-21T08:51:29.144Z,13.27
2022-09-21T09:01:57.891Z,11.73
2022-09-21T09:12:11.559Z,11.68
2022-09-21T09:22:19.756Z,9.45
2022-09-21T09:32:27.342Z,6.97
2022-09-21T09:42:55.739Z,10.63
2022-09-21T09:53:14.877Z,8.13
2022-09-21T10:03:18.962Z,7.67
2022-09-21T10:13:30.410Z,8.35
2022-09-21T10:23:34.190Z,7.45
2022-09-21T10:33:49.071Z,7.25
2022-09-21T10:43:51.216Z,8.77
2022-09-21T10:53:54.503Z,9.02
2022-09-21T11:04:09.718Z,7.50
2022-09-21T11:14:16.469Z,7.55
2022-09-21T11:24:21.137Z,7.57
2022-09-21T11:34:28.846Z,5.90
2022-09-21T11:44:58.594Z,5.25
2022-09-21T11:55:07.706Z,3.73
2022-09-21T12:06:00.596Z,5.63
2022-09-21T12:16:19.190Z,3.53
2022-09-21T12:26:36.206Z,5.03
2022-09-21T12:36:44.464Z,4.07
2022-09-21T12:47:05.048Z,3.45
2022-09-21T12:57:46.011Z,2.92
2022-09-21T13:08:04.943Z,6.88
2022-09-21T13:18:17.256Z,4.57
2022-09-21T13:28:20.964Z,4.28
2022-09-21T13:38:40.869Z,2.92
2022-09-21T13:48:42.752Z,11.30
2022-09-21T13:58:47.529Z,9.43
2022-09-21T14:08:57.864Z,3.33
2022-09-21T14:19:01.556Z,2.15
2022-09-21T14:29:43.208Z,3.17
2022-09-21T14:39:46.227Z,3.65
2022-09-21T15:00:51.224Z,3.72
2022-09-21T15:11:17.335Z,2.60
2022-09-21T15:21:26.141Z,2.47
2022-09-21T15:31:36.692Z,11.53
2022-09-21T15:41:41.715Z,5.78
2022-09-21T15:51:44.311Z,4.47
2022-09-21T16:01:49.648Z,7.57
2022-09-21T16:11:53.719Z,6.88
2022-09-21T16:22:04.270Z,10.50
2022-09-21T16:32:33.895Z,16.05
2022-09-21T16:42:35.831Z,18.30
2022-09-21T16:52:37.721Z,18.38
2022-09-21T17:02:39.662Z,13.93
2022-09-21T17:12:41.715Z,17.05
2022-09-21T17:22:43.522Z,11.52
2022-09-21T17:32:45.689Z,22.38
2022-09-21T17:42:47.867Z,16.77
2022-09-21T17:52:51.740Z,16.42
2022-09-21T18:02:54.367Z,23.08
2022-09-21T18:13:05.571Z,37.40
2022-09-21T18:23:29.451Z,28.13
2022-09-21T18:34:03.898Z,29.25
2022-09-21T18:44:18.745Z,33.20
2022-09-21T18:54:25.128Z,67.20
2022-09-21T19:04:27.282Z,50.40
2022-09-21T19:14:51.425Z,38.33
2022-09-21T19:24:59.271Z,22.80
2022-09-21T19:35:17.673Z,19.42
2022-09-21T19:45:30.732Z,20.45
2022-09-21T19:55:33.538Z,15.85
2022-09-21T20:05:41.343Z,17.65
2022-09-21T20:15:43.528Z,15.93
2022-09-21T20:25:58.949Z,15.93
2022-09-21T20:36:00.924Z,24.10
2022-09-21T20:46:02.784Z,27.90
2022-09-21T20:56:05.257Z,24.17
2022-09-21T21:06:12.407Z,16.42
2022-09-21T21:16:14.386Z,19.77
2022-09-21T21:26:16.331Z,16.55
2022-09-21T21:36:18.200Z,14.95
2022-09-21T21:46:20.093Z,16.13
2022-09-21T21:56:22.349Z,12.90
2022-09-21T22:06:25.609Z,12.35
2022-09-21T22:16:29.696Z,10.93
2022-09-21T22:26:35.941Z,11.18
2022-09-21T22:36:38.580Z,13.40
2022-09-21T22:46:40.519Z,9.25
2022-09-21T22:56:42.384Z,10.20
2022-09-21T23:06:45.451Z,9.55
2022-09-21T23:16:47.471Z,8.65
2022-09-21T23:26:49.442Z,8.23
2022-09-21T23:36:51.368Z,11.50
2022-09-21T23:46:53.662Z,12.50
2022-09-21T23:56:55.543Z,10.32
